Time;durP1;ratioP1;P1;durP2;ratioP2;P2;SDS_P1;SDS_P2;PMS_P1;PMS_P2;Temp;Humidity;BMP_temperature;BMP_pressure;BME280_temperature;BME280_humidity;BME280_pressure;Samples;Min_cycle;Max_cycle;Signal;HPM_P1;HPM_P2
2023/09/18 00:01:42;;;;;;;7.43;2.20;;;25.50;78.50;;;;;;5087530;28;20216;-82
2023/09/18 00:04:14;;;;;;;3.38;1.95;;;25.60;77.30;;;;;;5094673;28;20192;-82
2023/09/18 00:06:44;;;;;;;5.22;2.15;;;25.80;76.50;;;;;;5076043;28;20246;-81
2023/09/18 00:09:15;;;;;;;7.05;2.10;;;25.90;75.30;;;;;;5085665;28;20218;-82
2023/09/18 00:11:47;;;;;;;4.90;2.55;;;26.00;75.50;;;;;;5073860;28;20350;-82
2023/09/18 00:14:17;;;;;;;6.47;2.72;;;26.30;75.60;;;;;;5085515;28;20203;-82
2023/09/18 00:16:52;;;;;;;5.05;2.00;;;26.30;74.30;;;;;;5073045;28;20202;-82
2023/09/18 00:19:23;;;;;;;8.68;2.33;;;26.50;74.90;;;;;;5075610;28;20610;-81
2023/09/18 00:21:56;;;;;;;5.97;2.53;;;26.60;73.60;;;;;;5092912;28;20223;-82
2023/09/18 00:24:26;;;;;;;4.18;2.13;;;26.70;69.80;;;;;;5094031;28;20265;-82
2023/09/18 00:26:57;;;;;;;4.20;2.15;;;26.90;69.40;;;;;;5092368;28;20704;-81
2023/09/18 00:29:28;;;;;;;7.38;2.58;;;27.00;69.10;;;;;;5073326;28;20211;-82
2023/09/18 00:32:00;;;;;;;4.75;2.22;;;27.00;69.40;;;;;;5072102;28;20196;-81
2023/09/18 00:34:33;;;;;;;9.48;2.60;;;27.20;69.80;;;;;;5072145;28;20196;-82
2023/09/18 00:37:03;;;;;;;6.38;2.40;;;27.20;69.40;;;;;;5072284;28;20258;-82
2023/09/18 00:39:34;;;;;;;8.40;2.47;;;27.30;68.80;;;;;;5072360;28;20654;-82
2023/09/18 00:42:05;;;;;;;8.98;2.70;;;27.30;68.30;;;;;;5074626;28;20215;-82
2023/09/18 00:44:35;;;;;;;6.50;2.50;;;27.40;67.80;;;;;;5076886;28;20188;-82
2023/09/18 00:47:08;;;;;;;6.05;2.65;;;27.50;64.90;;;;;;5081946;28;20200;-82
2023/09/18 00:49:41;;;;;;;4.90;2.35;;;27.60;65.00;;;;;;5071813;28;20193;-82
2023/09/18 00:52:14;;;;;;;7.43;2.60;;;27.70;65.10;;;;;;5071780;28;20207;-82
2023/09/18 00:54:45;;;;;;;6.20;2.28;;;27.80;64.90;;;;;;5070832;28;20203;-83
2023/09/18 00:57:17;;;;;;;8.55;2.33;;;27.90;65.00;;;;;;5071891;28;20659;-83
2023/09/18 00:59:48;;;;;;;5.43;2.67;;;28.10;63.00;;;;;;5072378;28;20212;-82
2023/09/18 01:02:21;;;;;;;10.30;2.50;;;28.30;63.10;;;;;;5071878;28;20225;-83
2023/09/18 01:04:52;;;;;;;8.75;2.92;;;28.50;63.50;;;;;;5085611;28;20266;-83
2023/09/18 01:07:23;;;;;;;4.20;2.38;;;28.60;61.80;;;;;;5073786;28;20203;-82
2023/09/18 01:09:54;;;;;;;14.90;2.88;;;28.80;61.70;;;;;;5070378;28;20192;-82
2023/09/18 01:12:35;;;;;;;6.78;2.38;;;29.00;62.80;;;;;;5070466;28;20210;-81
2023/09/18 01:15:13;;;;;;;7.80;2.90;;;29.10;57.70;;;;;;5071725;28;20204;-83
2023/09/18 01:17:46;;;;;;;5.20;2.72;;;29.30;59.40;;;;;;5071330;28;20206;-81
2023/09/18 01:20:17;;;;;;;5.93;2.70;;;29.50;57.90;;;;;;5072157;28;20211;-84
2023/09/18 01:22:50;;;;;;;4.63;2.40;;;29.70;55.40;;;;;;5074977;28;20770;-83
2023/09/18 01:25:21;;;;;;;7.03;2.45;;;29.80;53.90;;;;;;5071947;28;20184;-83
2023/09/18 01:27:52;;;;;;;6.43;2.50;;;29.90;54.90;;;;;;5070718;28;20725;-84
2023/09/18 01:30:24;;;;;;;6.60;2.75;;;30.10;52.20;;;;;;5071783;28;20210;-85
2023/09/18 01:32:57;;;;;;;8.65;2.90;;;30.20;52.40;;;;;;5088495;28;20202;-84
2023/09/18 01:35:29;;;;;;;5.72;2.45;;;30.40;51.50;;;;;;5076859;28;20187;-85
2023/09/18 01:38:03;;;;;;;5.25;2.55;;;30.50;50.90;;;;;;5076337;28;20721;-84
2023/09/18 01:40:34;;;;;;;4.05;2.42;;;30.60;50.10;;;;;;5091098;28;20195;-84
2023/09/18 01:43:06;;;;;;;5.15;2.60;;;30.70;49.40;;;;;;5073216;28;20216;-84
2023/09/18 01:45:38;;;;;;;5.60;2.38;;;30.90;46.30;;;;;;5071691;28;20195;-83
2023/09/18 01:48:09;;;;;;;4.55;2.33;;;31.00;45.60;;;;;;5071888;28;20214;-84
2023/09/18 01:50:41;;;;;;;5.82;2.30;;;31.20;44.80;;;;;;5072614;28;20200;-83
2023/09/18 01:53:14;;;;;;;3.42;2.17;;;31.30;44.10;;;;;;5071355;28;20204;-82
2023/09/18 01:55:44;;;;;;;2.22;1.90;;;31.40;43.40;;;;;;5071936;28;20210;-85
2023/09/18 01:58:15;;;;;;;6.43;2.70;;;31.60;43.60;;;;;;5071163;28;20223;-85
2023/09/18 02:00:46;;;;;;;4.10;2.40;;;31.60;42.80;;;;;;5071242;28;20203;-86
2023/09/18 02:03:20;;;;;;;3.70;2.38;;;31.70;42.10;;;;;;5073369;28;20243;-82
2023/09/18 02:05:51;;;;;;;5.18;2.15;;;31.70;42.00;;;;;;5078461;28;20196;-85
2023/09/18 02:08:23;;;;;;;4.35;2.38;;;31.80;43.80;;;;;;5090195;28;20196;-89
2023/09/18 02:10:54;;;;;;;4.57;2.17;;;31.90;43.80;;;;;;5071359;28;20207;-89
2023/09/18 02:13:25;;;;;;;2.83;1.90;;;32.00;42.30;;;;;;5087850;28;20219;-90
2023/09/18 02:15:56;;;;;;;3.10;2.08;;;32.10;42.60;;;;;;5082753;28;20196;-89
2023/09/18 02:18:26;;;;;;;5.47;2.60;;;32.30;44.10;;;;;;5074473;28;20544;-89
2023/09/18 02:20:57;;;;;;;4.22;2.33;;;32.40;44.30;;;;;;5074703;28;20545;-89
2023/09/18 02:23:30;;;;;;;4.20;2.05;;;32.40;42.90;;;;;;5075258;28;20215;-89
2023/09/18 02:26:01;;;;;;;4.85;2.40;;;32.50;41.90;;;;;;5074634;28;20200;-90
2023/09/18 02:28:31;;;;;;;4.20;2.22;;;32.70;42.20;;;;;;5087868;28;20227;-91
2023/09/18 02:31:05;;;;;;;4.57;2.40;;;32.70;43.60;;;;;;5096182;28;20671;-91
2023/09/18 02:33:35;;;;;;;5.32;2.20;;;32.70;44.30;;;;;;5086870;28;20191;-91
2023/09/18 02:36:06;;;;;;;8.48;2.30;;;32.90;41.50;;;;;;5075674;28;20222;-91
2023/09/18 02:38:39;;;;;;;6.90;2.25;;;33.00;42.80;;;;;;5074087;28;20196;-88
2023/09/18 02:41:10;;;;;;;12.75;2.80;;;33.10;44.10;;;;;;5083609;28;20223;-90
2023/09/18 02:43:40;;;;;;;8.60;2.90;;;33.20;45.30;;;;;;5090206;28;20631;-88
2023/09/18 02:46:12;;;;;;;6.70;2.78;;;33.10;45.10;;;;;;5086969;28;20195;-89
2023/09/18 02:48:43;;;;;;;4.60;2.40;;;33.10;46.20;;;;;;5079270;28;20267;-92
2023/09/18 02:51:14;;;;;;;6.13;2.42;;;33.10;44.80;;;;;;5074551;28;20441;-92
2023/09/18 02:53:47;;;;;;;5.57;2.60;;;33.10;45.30;;;;;;5081275;28;20190;-89
2023/09/18 02:56:17;;;;;;;7.20;2.65;;;33.20;45.00;;;;;;5094690;28;20191;-90
2023/09/18 02:58:48;;;;;;;5.10;2.35;;;33.20;45.40;;;;;;5088568;28;20180;-90
2023/09/18 03:01:19;;;;;;;5.97;2.75;;;33.20;45.20;;;;;;5075096;28;20211;-90
2023/09/18 03:03:50;;;;;;;8.55;2.83;;;33.30;45.80;;;;;;5092244;28;20689;-90
2023/09/18 03:06:20;;;;;;;9.50;3.13;;;33.30;45.60;;;;;;5095399;28;20191;-88
2023/09/18 03:08:53;;;;;;;6.82;2.80;;;33.30;45.40;;;;;;5107889;28;20217;-89
2023/09/18 03:11:27;;;;;;;5.97;2.45;;;33.40;45.00;;;;;;5099526;28;20183;-88
2023/09/18 03:13:58;;;;;;;6.07;2.50;;;33.10;45.10;;;;;;5085656;28;20227;-91
2023/09/18 03:16:29;;;;;;;5.35;2.47;;;33.10;45.40;;;;;;5072691;28;20648;-87
2023/09/18 03:19:00;;;;;;;7.50;2.50;;;33.00;45.10;;;;;;5072081;28;20195;-91
2023/09/18 03:21:33;;;;;;;5.70;2.47;;;32.80;45.60;;;;;;5072579;28;20192;-90
2023/09/18 03:24:05;;;;;;;9.77;2.95;;;32.80;46.20;;;;;;5075468;28;20234;-88
2023/09/18 03:26:36;;;;;;;5.63;2.78;;;33.00;46.30;;;;;;5083074;28;20217;-90
2023/09/18 03:29:07;;;;;;;7.40;3.00;;;33.00;46.40;;;;;;5096819;28;20196;-89
2023/09/18 03:31:36;;;;;;;6.47;2.50;;;33.00;46.70;;;;;;5085928;28;20203;-89
2023/09/18 03:34:07;;;;;;;5.65;2.72;;;32.90;46.50;;;;;;5083824;28;20200;-90
2023/09/18 03:36:39;;;;;;;6.60;2.55;;;32.80;47.50;;;;;;5077234;28;20208;-89
2023/09/18 03:39:12;;;;;;;5.72;2.40;;;32.70;48.30;;;;;;5075813;28;20227;-88
2023/09/18 03:41:42;;;;;;;5.65;2.63;;;32.50;49.30;;;;;;5085882;28;20226;-87
2023/09/18 03:44:14;;;;;;;5.63;2.65;;;32.30;50.00;;;;;;5086830;28;20303;-89
2023/09/18 03:46:47;;;;;;;6.15;2.50;;;32.30;51.20;;;;;;5076121;28;20559;-89
2023/09/18 03:49:17;;;;;;;9.63;3.08;;;32.30;52.40;;;;;;5082451;28;20203;-86
2023/09/18 03:51:48;;;;;;;6.25;2.65;;;32.30;52.60;;;;;;5085186;28;20575;-86
2023/09/18 03:54:21;;;;;;;6.38;2.97;;;31.90;53.50;;;;;;5074718;28;20202;-87
2023/09/18 03:56:52;;;;;;;5.68;2.80;;;31.70;54.40;;;;;;5075080;28;20196;-86
2023/09/18 03:59:23;;;;;;;10.52;3.00;;;31.30;54.70;;;;;;5091479;28;20210;-85
2023/09/18 04:01:54;;;;;;;11.15;3.00;;;31.20;54.80;;;;;;5075403;28;20196;-86
2023/09/18 04:04:24;;;;;;;5.00;2.67;;;30.90;56.00;;;;;;5074642;28;20591;-86
2023/09/18 04:06:56;;;;;;;6.93;2.88;;;30.80;56.00;;;;;;5074164;28;20212;-85
2023/09/18 04:09:29;;;;;;;10.30;3.30;;;30.70;56.50;;;;;;5079322;28;20168;-87
2023/09/18 04:12:00;;;;;;;5.75;2.70;;;30.70;56.90;;;;;;5107427;28;20225;-86
2023/09/18 04:14:31;;;;;;;7.57;2.95;;;30.70;55.80;;;;;;5092763;28;20286;-87
2023/09/18 04:17:01;;;;;;;6.80;2.80;;;30.50;55.60;;;;;;5074270;28;20188;-85
2023/09/18 04:19:32;;;;;;;6.07;2.67;;;30.40;56.10;;;;;;5074261;28;20245;-86
2023/09/18 04:22:03;;;;;;;6.72;3.10;;;30.50;56.40;;;;;;5074233;28;20188;-84
2023/09/18 04:24:35;;;;;;;9.50;3.15;;;30.50;56.20;;;;;;5073307;28;20218;-86
2023/09/18 04:27:06;;;;;;;12.52;3.40;;;30.50;56.80;;;;;;5073346;28;20594;-86
2023/09/18 04:29:37;;;;;;;7.97;3.03;;;30.40;56.10;;;;;;5073881;28;20204;-87
2023/09/18 04:32:08;;;;;;;5.18;2.60;;;30.20;56.00;;;;;;5089196;28;20215;-85
2023/09/18 04:34:39;;;;;;;9.80;3.40;;;30.20;56.00;;;;;;5073073;28;20615;-88
2023/09/18 04:37:10;;;;;;;6.15;3.13;;;30.10;56.30;;;;;;5073400;28;20202;-85
2023/09/18 04:39:43;;;;;;;8.18;3.47;;;30.00;56.80;;;;;;5073106;28;20587;-87
2023/09/18 04:42:14;;;;;;;10.20;3.33;;;30.00;57.20;;;;;;5073705;28;20211;-85
2023/09/18 04:44:45;;;;;;;7.05;2.95;;;30.00;56.70;;;;;;5080455;28;20234;-86
2023/09/18 04:47:15;;;;;;;8.18;3.60;;;30.00;55.90;;;;;;5092399;28;20188;-86
2023/09/18 04:49:47;;;;;;;5.57;3.25;;;29.80;56.40;;;;;;5094275;28;20195;-86
2023/09/18 04:52:18;;;;;;;5.22;3.20;;;29.90;56.80;;;;;;5093424;28;20207;-85
2023/09/18 04:54:50;;;;;;;9.48;3.80;;;29.90;56.80;;;;;;5094204;28;20585;-85
2023/09/18 04:57:22;;;;;;;8.80;3.67;;;29.90;56.10;;;;;;5093632;28;20202;-85
2023/09/18 04:59:52;;;;;;;6.25;3.58;;;29.90;55.60;;;;;;5095191;28;20638;-85
2023/09/18 05:02:25;;;;;;;7.68;4.05;;;29.80;55.20;;;;;;5092888;28;20195;-85
2023/09/18 05:04:58;;;;;;;10.32;3.83;;;29.80;54.50;;;;;;5091995;28;20214;-85
2023/09/18 05:07:28;;;;;;;6.82;3.83;;;29.90;53.50;;;;;;5095147;28;20199;-86
2023/09/18 05:10:06;;;;;;;9.50;4.47;;;29.80;51.90;;;;;;5104423;28;20187;-85
2023/09/18 05:12:37;;;;;;;14.88;4.15;;;29.90;51.80;;;;;;5116290;28;20203;-86
2023/09/18 05:15:10;;;;;;;8.15;4.60;;;30.00;51.60;;;;;;5080816;28;20199;-86
2023/09/18 05:17:48;;;;;;;7.30;4.07;;;29.90;51.50;;;;;;5073966;28;20195;-86
2023/09/18 05:20:20;;;;;;;10.60;4.20;;;30.00;51.30;;;;;;5074123;28;20192;-85
2023/09/18 05:22:50;;;;;;;8.85;4.22;;;30.00;50.90;;;;;;5073424;28;20232;-85
2023/09/18 05:25:24;;;;;;;10.60;4.00;;;30.20;50.40;;;;;;5074163;28;20184;-86
2023/09/18 05:27:57;;;;;;;8.77;3.80;;;30.20;50.10;;;;;;5076508;28;20295;-86
2023/09/18 05:30:31;;;;;;;8.85;4.15;;;30.20;50.50;;;;;;5084620;28;20179;-85
2023/09/18 05:33:04;;;;;;;13.80;4.22;;;30.40;50.10;;;;;;5077517;28;20206;-86
2023/09/18 05:35:39;;;;;;;7.82;3.90;;;30.30;50.40;;;;;;5078819;28;20195;-85
2023/09/18 05:38:10;;;;;;;10.48;3.60;;;30.40;50.20;;;;;;5087453;28;20191;-86
2023/09/18 05:40:43;;;;;;;8.77;3.80;;;30.40;50.60;;;;;;5077592;28;20220;-87
2023/09/18 05:43:14;;;;;;;9.57;4.05;;;30.50;50.70;;;;;;5075130;28;20681;-87
2023/09/18 05:45:45;;;;;;;9.40;4.18;;;30.50;50.30;;;;;;5073237;28;20211;-86
2023/09/18 05:48:15;;;;;;;8.50;4.15;;;30.50;50.30;;;;;;5087713;28;20192;-86
2023/09/18 05:50:47;;;;;;;10.70;4.50;;;30.40;51.20;;;;;;5100589;28;20206;-86
2023/09/18 05:53:18;;;;;;;8.38;4.70;;;30.50;52.30;;;;;;5081672;28;20208;-87
2023/09/18 05:55:51;;;;;;;8.55;4.50;;;30.50;52.40;;;;;;5074236;28;20192;-88
2023/09/18 05:58:25;;;;;;;12.05;4.80;;;30.40;52.90;;;;;;5074414;28;20207;-86
2023/09/18 06:00:56;;;;;;;8.15;4.93;;;30.20;53.40;;;;;;5072956;28;20651;-86
2023/09/18 06:03:26;;;;;;;11.05;4.78;;;30.30;53.20;;;;;;5073323;28;20216;-87
2023/09/18 06:05:58;;;;;;;8.43;5.00;;;30.30;52.80;;;;;;5074289;28;20203;-86
2023/09/18 06:08:28;;;;;;;9.68;4.93;;;30.30;52.40;;;;;;5073032;28;20191;-87
2023/09/18 06:11:01;;;;;;;10.48;5.00;;;30.30;52.50;;;;;;5073136;28;20215;-88
2023/09/18 06:13:34;;;;;;;10.23;5.50;;;30.40;52.70;;;;;;5096494;28;20196;-87
2023/09/18 06:16:07;;;;;;;6.30;5.15;;;30.40;52.40;;;;;;5077880;28;20192;-87
2023/09/18 06:18:38;;;;;;;9.88;5.53;;;30.50;52.50;;;;;;5074734;28;20282;-87
2023/09/18 06:21:09;;;;;;;9.73;5.35;;;30.70;51.90;;;;;;5095093;28;20184;-88
2023/09/18 06:23:40;;;;;;;7.57;5.70;;;30.90;52.00;;;;;;5091800;28;20589;-88
2023/09/18 06:26:13;;;;;;;13.98;6.03;;;31.20;51.50;;;;;;5090845;28;20211;-87
2023/09/18 06:28:44;;;;;;;8.55;6.15;;;31.40;51.20;;;;;;5072484;28;20705;-90
2023/09/18 06:31:16;;;;;;;7.85;5.90;;;31.40;50.60;;;;;;5082025;28;20192;-86
2023/09/18 06:33:47;;;;;;;10.15;5.78;;;31.70;50.40;;;;;;5078131;28;20195;-87
2023/09/18 06:36:18;;;;;;;12.57;6.22;;;31.90;50.10;;;;;;5077157;28;20192;-87
2023/09/18 06:38:49;;;;;;;11.48;6.10;;;32.10;49.70;;;;;;5072703;28;20200;-87
2023/09/18 06:41:21;;;;;;;8.40;6.25;;;32.10;49.90;;;;;;5073245;28;20176;-87
2023/09/18 06:43:52;;;;;;;11.38;6.32;;;32.20;49.60;;;;;;5080602;28;20246;-87
2023/09/18 06:46:23;;;;;;;8.38;6.20;;;32.30;49.40;;;;;;5072994;28;20204;-86
2023/09/18 06:48:56;;;;;;;10.20;6.25;;;32.20;49.50;;;;;;5074646;28;20650;-85
2023/09/18 06:51:27;;;;;;;10.90;6.00;;;32.20;49.40;;;;;;5081221;28;20271;-85
2023/09/18 06:53:58;;;;;;;10.60;6.30;;;32.00;49.60;;;;;;5091389;28;20195;-88
2023/09/18 06:56:31;;;;;;;9.00;5.75;;;31.80;49.60;;;;;;5092725;28;20248;-86
2023/09/18 06:59:02;;;;;;;8.23;5.70;;;31.70;48.20;;;;;;5089320;28;20207;-88
2023/09/18 07:01:33;;;;;;;7.88;5.60;;;31.40;48.40;;;;;;5077292;28;20607;-87
2023/09/18 07:04:04;;;;;;;7.35;5.65;;;31.20;48.50;;;;;;5076459;28;20226;-88
2023/09/18 07:06:35;;;;;;;8.20;5.72;;;30.80;48.90;;;;;;5076383;28;20188;-87
2023/09/18 07:09:06;;;;;;;9.55;5.70;;;30.60;49.50;;;;;;5075912;28;20558;-87
2023/09/18 07:11:40;;;;;;;9.55;5.40;;;30.40;50.00;;;;;;5095573;28;20187;-87
2023/09/18 07:14:11;;;;;;;8.18;5.63;;;30.10;50.30;;;;;;5100174;28;20212;-87
2023/09/18 07:16:42;;;;;;;10.60;5.88;;;29.90;50.70;;;;;;5100411;28;20189;-88
2023/09/18 07:19:16;;;;;;;7.30;5.20;;;29.70;50.60;;;;;;5076145;28;20195;-88
2023/09/18 07:21:51;;;;;;;7.25;5.25;;;29.40;51.10;;;;;;5081986;28;20264;-87
2023/09/18 07:24:22;;;;;;;9.82;5.93;;;29.30;51.40;;;;;;5078797;28;20223;-87
2023/09/18 07:26:54;;;;;;;8.82;5.70;;;29.10;51.80;;;;;;5079088;28;20192;-88
2023/09/18 07:29:26;;;;;;;7.50;5.22;;;29.00;51.70;;;;;;5078760;28;20705;-87
2023/09/18 07:31:56;;;;;;;7.03;5.55;;;28.80;51.40;;;;;;5075617;28;20249;-89
2023/09/18 07:34:27;;;;;;;6.57;5.10;;;28.80;51.50;;;;;;5077074;28;20682;-88
2023/09/18 07:36:58;;;;;;;8.90;5.88;;;28.70;52.00;;;;;;5089927;28;20195;-89
2023/09/18 07:39:29;;;;;;;12.30;6.13;;;28.50;52.20;;;;;;5100919;28;20184;-89
2023/09/18 07:42:01;;;;;;;9.57;5.47;;;28.40;52.30;;;;;;5095061;28;20643;-88
2023/09/18 07:44:32;;;;;;;8.18;5.47;;;28.30;52.60;;;;;;5095943;28;20227;-87
2023/09/18 07:47:03;;;;;;;9.95;6.00;;;28.30;53.00;;;;;;5082597;28;20198;-88
2023/09/18 07:49:34;;;;;;;10.82;6.15;;;28.20;53.60;;;;;;5084551;28;20192;-88
2023/09/18 07:52:04;;;;;;;9.48;6.18;;;28.10;53.90;;;;;;5083521;28;20203;-89
2023/09/18 07:54:35;;;;;;;11.55;6.10;;;28.00;54.40;;;;;;5092760;28;20207;-88
2023/09/18 07:57:09;;;;;;;9.20;5.80;;;27.90;55.20;;;;;;5091578;28;20667;-86
2023/09/18 07:59:42;;;;;;;10.70;5.97;;;27.80;55.60;;;;;;5091804;28;20617;-86
2023/09/18 08:02:12;;;;;;;7.90;5.95;;;27.60;55.90;;;;;;5092722;28;20202;-87
2023/09/18 08:04:43;;;;;;;9.32;6.25;;;27.60;56.40;;;;;;5092428;28;20298;-86
2023/09/18 08:07:14;;;;;;;12.98;6.72;;;27.50;57.20;;;;;;5091092;28;20203;-87
2023/09/18 08:09:44;;;;;;;12.85;7.05;;;27.40;58.00;;;;;;5088954;28;20199;-87
2023/09/18 08:12:17;;;;;;;7.82;6.28;;;27.30;57.60;;;;;;5090850;28;20635;-89
2023/09/18 08:14:49;;;;;;;11.25;6.05;;;27.20;57.40;;;;;;5089392;28;20207;-87
2023/09/18 08:17:20;;;;;;;8.48;5.90;;;27.10;58.00;;;;;;5109676;28;20221;-87
2023/09/18 08:19:54;;;;;;;8.70;6.40;;;27.00;58.20;;;;;;5091995;28;20512;-85
2023/09/18 08:22:25;;;;;;;9.85;6.45;;;27.00;58.30;;;;;;5092028;28;20199;-86
2023/09/18 08:24:56;;;;;;;11.43;6.70;;;26.80;58.20;;;;;;5083014;28;20309;-85
2023/09/18 08:27:29;;;;;;;10.35;6.57;;;26.80;58.10;;;;;;5087652;28;20228;-87
2023/09/18 08:29:59;;;;;;;9.00;6.28;;;26.80;57.40;;;;;;5092786;28;20322;-86
2023/09/18 08:32:33;;;;;;;9.23;7.07;;;26.70;57.60;;;;;;5095410;28;20202;-86
2023/09/18 08:35:04;;;;;;;9.73;6.78;;;26.70;57.40;;;;;;5095803;28;20670;-87
2023/09/18 08:37:35;;;;;;;9.38;6.45;;;26.70;57.40;;;;;;5092074;28;20251;-87
2023/09/18 08:40:09;;;;;;;9.68;6.93;;;26.70;57.50;;;;;;5082352;28;20192;-87
2023/09/18 08:42:43;;;;;;;10.00;6.63;;;26.60;57.50;;;;;;5081306;28;20202;-86
2023/09/18 08:45:17;;;;;;;9.30;6.63;;;26.70;57.30;;;;;;5078039;28;20231;-87
2023/09/18 08:47:48;;;;;;;7.00;6.10;;;26.60;57.40;;;;;;5076286;28;20200;-86
2023/09/18 08:50:20;;;;;;;8.48;6.30;;;26.50;57.50;;;;;;5074761;28;20200;-91
2023/09/18 08:52:51;;;;;;;9.27;6.25;;;26.50;57.60;;;;;;5084771;28;20206;-88
2023/09/18 08:55:23;;;;;;;10.55;6.78;;;26.50;57.80;;;;;;5084882;28;20207;-87
2023/09/18 08:57:58;;;;;;;9.95;6.07;;;26.40;58.20;;;;;;5074271;28;20655;-87
2023/09/18 09:00:28;;;;;;;10.20;6.50;;;26.40;58.80;;;;;;5087493;28;20222;-87
2023/09/18 09:02:59;;;;;;;10.40;6.93;;;26.30;59.10;;;;;;5075435;28;20192;-89
2023/09/18 09:05:30;;;;;;;9.15;6.07;;;26.30;59.50;;;;;;5076474;28;20230;-89
2023/09/18 09:08:02;;;;;;;9.32;6.55;;;26.20;59.60;;;;;;5076926;28;20202;-89
2023/09/18 09:10:32;;;;;;;11.77;7.03;;;26.20;60.00;;;;;;5078686;28;20234;-87
2023/09/18 09:13:07;;;;;;;10.57;6.65;;;26.10;59.60;;;;;;5079223;28;20572;-89
2023/09/18 09:15:47;;;;;;;8.88;6.80;;;26.10;60.00;;;;;;5077002;28;20183;-88
2023/09/18 09:18:18;;;;;;;8.02;6.15;;;26.00;60.30;;;;;;5111704;28;20230;-90
2023/09/18 09:20:58;;;;;;;9.77;6.13;;;26.10;60.00;;;;;;5103521;28;20180;-87
2023/09/18 09:23:31;;;;;;;9.30;6.57;;;26.00;60.10;;;;;;5083578;28;20257;-88
2023/09/18 09:26:16;;;;;;;10.52;6.57;;;26.00;60.30;;;;;;5084590;28;20310;-91
2023/09/18 09:28:50;;;;;;;11.00;6.43;;;26.00;60.90;;;;;;5085192;28;20532;-88
2023/09/18 09:31:32;;;;;;;12.95;6.15;;;26.00;60.80;;;;;;5084504;28;20188;-88
2023/09/18 09:34:05;;;;;;;9.60;6.47;;;25.90;61.20;;;;;;5094153;28;20215;-88
2023/09/18 09:36:36;;;;;;;8.73;5.95;;;25.90;61.20;;;;;;5076908;28;20307;-89
2023/09/18 09:39:07;;;;;;;9.05;6.22;;;25.90;61.80;;;;;;5077383;28;20191;-90
2023/09/18 09:41:38;;;;;;;10.45;6.65;;;25.80;62.20;;;;;;5093372;28;20195;-87
2023/09/18 09:44:12;;;;;;;7.82;6.28;;;25.80;62.20;;;;;;5094200;28;20671;-88
2023/09/18 09:46:49;;;;;;;8.45;6.28;;;25.70;62.40;;;;;;5074415;28;20222;-86
2023/09/18 09:49:20;;;;;;;8.55;5.78;;;25.70;62.80;;;;;;5074809;28;20200;-88
2023/09/18 09:51:51;;;;;;;8.88;6.32;;;25.70;62.70;;;;;;5077883;28;20678;-89
2023/09/18 09:54:40;;;;;;;9.52;6.03;;;25.70;63.10;;;;;;5079519;28;20188;-86
2023/09/18 09:57:12;;;;;;;12.65;6.10;;;25.60;63.30;;;;;;5075451;28;20276;-87
2023/09/18 09:59:45;;;;;;;8.57;5.80;;;25.60;63.80;;;;;;5078072;28;20578;-87
2023/09/18 10:02:19;;;;;;;10.68;6.35;;;25.50;65.00;;;;;;5080197;28;20258;-87
2023/09/18 10:04:57;;;;;;;8.50;6.13;;;25.50;64.80;;;;;;5089082;28;20239;-91
2023/09/18 10:10:21;;;;;;;11.20;6.38;;;25.40;66.90;;;;;;5087979;28;20192;-89
2023/09/18 10:12:55;;;;;;;8.30;6.13;;;25.40;68.80;;;;;;5079851;28;20239;-90
2023/09/18 10:15:30;;;;;;;10.70;6.13;;;25.40;69.60;;;;;;5080915;28;20224;-90
2023/09/18 10:18:05;;;;;;;8.40;6.28;;;25.30;69.20;;;;;;5087399;28;20205;-91
2023/09/18 10:20:42;;;;;;;9.75;6.28;;;25.30;69.20;;;;;;5094995;28;20242;-89
2023/09/18 10:23:23;;;;;;;9.38;6.00;;;25.30;69.20;;;;;;5081655;28;20207;-89
2023/09/18 10:25:59;;;;;;;11.98;6.75;;;25.30;69.70;;;;;;5081818;28;20238;-88
2023/09/18 10:28:35;;;;;;;9.35;6.10;;;25.20;70.40;;;;;;5081717;28;20640;-89
2023/09/18 10:31:12;;;;;;;8.48;6.43;;;25.20;71.00;;;;;;5078661;28;20184;-88
2023/09/18 10:33:44;;;;;;;12.43;6.55;;;25.20;71.90;;;;;;5095999;28;20264;-89
2023/09/18 10:36:17;;;;;;;10.45;6.80;;;25.20;71.80;;;;;;5080175;28;20202;-91
2023/09/18 10:38:55;;;;;;;10.05;6.40;;;25.20;72.10;;;;;;5103176;28;20279;-90
2023/09/18 10:41:27;;;;;;;9.80;6.72;;;25.20;72.40;;;;;;5099892;28;20199;-89
2023/09/18 10:43:58;;;;;;;12.02;6.65;;;25.20;73.30;;;;;;5102125;28;20199;-89
2023/09/18 10:46:35;;;;;;;11.10;6.68;;;25.10;73.50;;;;;;5100001;28;20252;-90
2023/09/18 10:49:07;;;;;;;11.68;6.72;;;25.10;74.50;;;;;;5098643;28;20274;-88
2023/09/18 10:51:42;;;;;;;9.20;6.38;;;25.10;75.20;;;;;;5081345;28;20197;-89
2023/09/18 10:54:14;;;;;;;13.25;6.78;;;25.10;75.70;;;;;;5078674;28;20195;-90
2023/09/18 10:56:48;;;;;;;9.73;6.80;;;25.00;75.80;;;;;;5080506;28;20242;-87
2023/09/18 10:59:20;;;;;;;11.43;6.65;;;25.00;76.60;;;;;;5092366;28;20202;-89
2023/09/18 11:01:54;;;;;;;11.60;6.75;;;25.00;77.60;;;;;;5099279;28;20191;-90
2023/09/18 11:04:25;;;;;;;11.85;7.38;;;24.90;78.30;;;;;;5098046;28;20291;-87
2023/09/18 11:07:21;;;;;;;10.85;6.90;;;24.90;78.80;;;;;;5102164;28;20194;-89
2023/09/18 11:09:52;;;;;;;9.50;6.50;;;24.90;79.20;;;;;;5116511;28;20178;-92
2023/09/18 11:12:45;;;;;;;10.02;7.53;;;24.90;80.90;;;;;;5119906;28;20198;-89
2023/09/18 11:15:33;;;;;;;9.90;6.90;;;24.80;81.50;;;;;;5100999;28;20203;-89
2023/09/18 11:18:10;;;;;;;10.70;7.15;;;24.80;83.50;;;;;;5106893;28;20195;-88
2023/09/18 11:20:43;;;;;;;11.55;7.20;;;24.80;84.10;;;;;;5092007;28;20263;-90
2023/09/18 11:23:20;;;;;;;10.85;7.15;;;24.70;84.60;;;;;;5087240;28;20200;-87
2023/09/18 11:25:55;;;;;;;9.80;7.32;;;24.70;86.20;;;;;;5080202;28;20227;-91
2023/09/18 11:28:28;;;;;;;12.30;7.03;;;24.70;87.50;;;;;;5081320;28;20234;-90
2023/09/18 11:31:00;;;;;;;9.15;6.65;;;24.60;87.70;;;;;;5085648;28;20179;-89
2023/09/18 11:33:46;;;;;;;13.40;7.05;;;24.60;88.60;;;;;;5100610;28;20199;-89
2023/09/18 11:36:32;;;;;;;11.68;6.90;;;24.60;89.20;;;;;;5094230;28;20209;-89
2023/09/18 11:39:05;;;;;;;10.32;7.20;;;24.60;89.30;;;;;;5095430;28;20671;-88
2023/09/18 11:41:38;;;;;;;11.80;7.28;;;24.50;88.80;;;;;;5100473;28;20195;-88
2023/09/18 11:44:46;;;;;;;12.20;7.28;;;24.50;88.50;;;;;;5097478;28;20685;-89
2023/09/18 11:47:21;;;;;;;12.57;7.63;;;24.50;89.10;;;;;;5091371;28;20194;-89
2023/09/18 11:49:57;;;;;;;9.82;7.28;;;24.50;88.50;;;;;;5076864;28;20203;-88
2023/09/18 11:52:29;;;;;;;10.15;7.57;;;24.50;88.50;;;;;;5075748;28;20190;-90
2023/09/18 11:55:03;;;;;;;11.35;7.50;;;24.50;89.20;;;;;;5077728;28;20202;-91
2023/09/18 11:57:42;;;;;;;12.80;7.57;;;24.40;88.90;;;;;;5077594;28;20196;-91
2023/09/18 12:00:27;;;;;;;12.75;7.40;;;24.40;89.40;;;;;;5097130;28;20226;-91
2023/09/18 12:03:00;;;;;;;10.32;7.10;;;24.30;89.90;;;;;;5098267;28;20206;-90
2023/09/18 12:05:35;;;;;;;13.50;7.18;;;24.30;90.40;;;;;;5095151;28;20220;-91
2023/09/18 12:08:06;;;;;;;10.27;7.18;;;24.30;91.10;;;;;;5096431;28;20214;-90
2023/09/18 12:10:37;;;;;;;14.23;7.75;;;24.20;91.60;;;;;;5105034;28;20215;-90
2023/09/18 12:13:11;;;;;;;10.95;7.50;;;24.10;92.40;;;;;;5091231;28;20220;-89
2023/09/18 12:15:43;;;;;;;12.18;7.70;;;24.10;93.40;;;;;;5080052;28;21038;-90
2023/09/18 12:18:14;;;;;;;14.10;7.50;;;24.00;94.20;;;;;;5079404;28;20252;-91
2023/09/18 12:20:53;;;;;;;11.18;7.75;;;23.90;94.80;;;;;;5081629;28;20196;-90
2023/09/18 12:23:24;;;;;;;13.55;7.68;;;23.90;95.30;;;;;;5106924;28;20199;-89
2023/09/18 12:26:01;;;;;;;13.60;7.90;;;23.90;95.80;;;;;;5098878;28;20235;-91
2023/09/18 12:28:33;;;;;;;10.90;7.28;;;23.80;95.90;;;;;;5096962;28;20227;-91
2023/09/18 12:31:05;;;;;;;13.88;7.43;;;23.80;96.60;;;;;;5082431;28;20196;-92
2023/09/18 12:33:38;;;;;;;12.23;8.00;;;23.80;96.50;;;;;;5076076;28;20195;-91
2023/09/18 12:36:14;;;;;;;13.18;8.20;;;23.80;96.40;;;;;;5087215;28;20270;-90
2023/09/18 12:38:45;;;;;;;15.23;7.90;;;23.70;96.30;;;;;;5075286;28;20689;-93
2023/09/18 12:41:16;;;;;;;12.95;8.00;;;23.70;96.70;;;;;;5076302;28;20200;-92
2023/09/18 12:43:47;;;;;;;12.48;8.38;;;23.70;96.50;;;;;;5076498;28;20570;-90
2023/09/18 12:46:18;;;;;;;12.88;8.00;;;23.60;96.80;;;;;;5076941;28;20609;-89
2023/09/18 12:48:49;;;;;;;12.57;8.27;;;23.60;97.40;;;;;;5091673;28;20230;-93
2023/09/18 12:51:31;;;;;;;12.05;8.05;;;23.60;96.90;;;;;;5095632;28;20592;-91
2023/09/18 12:54:06;;;;;;;12.77;8.35;;;23.60;97.20;;;;;;5094799;28;20214;-90
2023/09/18 12:56:43;;;;;;;12.70;8.13;;;23.60;97.30;;;;;;5094658;28;20191;-90
2023/09/18 12:59:14;;;;;;;13.82;7.85;;;23.50;97.50;;;;;;5075062;28;20372;-91
2023/09/18 13:01:48;;;;;;;14.55;7.68;;;23.60;97.80;;;;;;5094236;28;20192;-91
2023/09/18 13:04:20;;;;;;;14.32;8.13;;;23.60;97.50;;;;;;5087765;28;20183;-92
2023/09/18 13:07:08;;;;;;;14.13;7.88;;;23.60;97.10;;;;;;5085363;28;20591;-90
2023/09/18 13:09:39;;;;;;;9.30;7.50;;;23.60;97.10;;;;;;5101625;28;20575;-91
2023/09/18 13:12:10;;;;;;;12.55;7.97;;;23.60;97.10;;;;;;5087012;28;20192;-89
2023/09/18 13:15:04;;;;;;;11.82;7.88;;;23.50;97.30;;;;;;5082923;28;20243;-89